»·PEaware :: WAT169 KSNA-KLAS

WAT169 :: KSNA-KLAS

FLIGHT INFORMATION

Flight Status: Arrived
Operator:
Walker Air Transport
More flights by this operator :: More flights under this callsign
Pilot: Marty P. (27464)
Aircraft: BOEING 737-800
(B738)
More flights by this aircraft type
Origin: KSNA John Wayne-Orange Co
United States
Destination: KLAS McCarran Intl
United States
More flights between these airports :: More routes between these airports
Route: FINZZ3 MISEN RNDRZ1
File this flight plan on PilotEdge
Remarks:
Altitude:
(Current/Filed)
27,000ft
Speed:
(Current/Filed)
480kts
Departed: 05-Apr-21 06:29 PM
Arrived: 05-Apr-21 07:11 PM
Distance/Time
Traveled:
197nm/0:42
Distance/Time
To Go:
Arrived

Flight Plot

Page will automatically refresh every two minutes.

Flight plan parsing failed; only flown route is shown


Map Options




Map Legend


Flown Route
Filed Route
Departure Airport
Arrival Airport
Navaid (VOR, NDB)
Fix

Horizontal Profiles

Position Reports

Time Latitude Longitude Heading Altitude Ground
Speed
05-Apr-21 18:12 33.675005 -117.865072 118 66ft 0kts
05-Apr-21 18:13 33.675005 -117.865072 118 66ft 0kts
05-Apr-21 18:14 33.675005 -117.865072 118 66ft 0kts
05-Apr-21 18:15 33.675005 -117.865072 118 66ft 0kts
05-Apr-21 18:16 33.675005 -117.865072 118 66ft 0kts
05-Apr-21 18:17 33.675005 -117.865072 118 66ft 0kts
05-Apr-21 18:18 33.675005 -117.865072 118 66ft 0kts
05-Apr-21 18:19 33.675005 -117.865072 118 66ft 0kts
05-Apr-21 18:20 33.675005 -117.865073 118 66ft 0kts
05-Apr-21 18:21 33.675181 -117.865516 92 66ft 2kts
05-Apr-21 18:22 33.674958 -117.865941 27 66ft 0kts
05-Apr-21 18:23 33.674958 -117.865941 27 66ft 0kts
05-Apr-21 18:24 33.678121 -117.863929 27 66ft 18kts
05-Apr-21 18:25 33.680597 -117.862960 298 66ft 6kts
05-Apr-21 18:26 33.681387 -117.865225 207 66ft 1kts
05-Apr-21 18:27 33.681385 -117.865226 208 66ft 0kts
05-Apr-21 18:28 33.676258 -117.868477 207 67ft 117kts
05-Apr-21 18:29 33.632412 -117.891253 191 2278ft 214kts
05-Apr-21 18:30 33.568206 -117.907234 211 6110ft 251kts
05-Apr-21 18:31 33.516127 -117.964769 241 7951ft 260kts
05-Apr-21 18:32 33.513910 -118.044214 297 11583ft 263kts
05-Apr-21 18:33 33.581224 -118.104859 339 13651ft 347kts
05-Apr-21 18:34 33.680226 -118.077410 18 16598ft 397kts
05-Apr-21 18:35 33.780977 -118.018224 18 19135ft 414kts
05-Apr-21 18:36 33.885907 -117.954990 24 21389ft 436kts
05-Apr-21 18:37 33.987338 -117.868816 29 23362ft 456kts
05-Apr-21 18:38 34.086108 -117.768024 39 25184ft 478kts
05-Apr-21 18:39 34.175621 -117.646055 42 26862ft 493kts
05-Apr-21 18:40 34.267581 -117.512402 44 26943ft 537kts
05-Apr-21 18:41 34.361688 -117.372210 44 26945ft 534kts
05-Apr-21 18:42 34.455078 -117.232459 44 26945ft 536kts
05-Apr-21 18:43 34.548442 -117.092254 44 26944ft 535kts
05-Apr-21 18:44 34.643707 -116.953297 43 26933ft 534kts
05-Apr-21 18:45 34.738591 -116.814821 43 26921ft 533kts
05-Apr-21 18:46 34.833933 -116.679381 38 26851ft 528kts
05-Apr-21 18:47 34.942300 -116.560585 31 26807ft 523kts
05-Apr-21 18:48 35.055575 -116.449818 31 26807ft 522kts
05-Apr-21 18:49 35.159675 -116.327798 39 26807ft 531kts
05-Apr-21 18:50 35.261773 -116.195540 41 26647ft 532kts
05-Apr-21 18:51 35.356617 -116.065064 42 24152ft 498kts
05-Apr-21 18:52 35.446117 -115.941819 42 21751ft 470kts
05-Apr-21 18:53 35.527937 -115.828818 42 19974ft 417kts
05-Apr-21 18:54 35.600382 -115.728368 40 18735ft 370kts
05-Apr-21 18:55 35.668480 -115.636688 40 17276ft 361kts
05-Apr-21 18:56 35.737357 -115.550827 27 15774ft 343kts
05-Apr-21 18:57 35.817632 -115.493113 23 14062ft 329kts
05-Apr-21 18:58 35.895859 -115.438285 25 12523ft 317kts
05-Apr-21 18:59 35.971958 -115.385078 26 11019ft 311kts
05-Apr-21 19:00 36.012771 -115.302297 88 10570ft 278kts
05-Apr-21 19:01 36.008130 -115.208143 96 9157ft 271kts
05-Apr-21 19:02 36.002767 -115.114924 95 9024ft 274kts
05-Apr-21 19:04 35.999095 -115.021797 91 8158ft 269kts
05-Apr-21 19:05 36.001985 -114.930772 64 6938ft 261kts
05-Apr-21 19:06 36.052785 -114.906095 325 5681ft 196kts
05-Apr-21 19:07 36.073235 -114.957679 269 4828ft 174kts
05-Apr-21 19:08 36.073602 -115.014401 267 3872ft 143kts
05-Apr-21 19:09 36.073640 -115.064426 264 3062ft 155kts
05-Apr-21 19:10 36.073667 -115.116707 265 2245ft 151kts
05-Apr-21 19:11 36.073781 -115.143262 283 2096ft 23kts
05-Apr-21 19:12 36.074769 -115.146003 304 2104ft 3kts
05-Apr-21 19:13 36.078555 -115.147211 357 2102ft 14kts
05-Apr-21 19:14 36.080877 -115.148052 66 2101ft 6kts
05-Apr-21 19:15 36.081010 -115.147678 62 2099ft 0kts
05-Apr-21 19:16 36.081010 -115.147676 66 2099ft 0kts

Navigation Log

Ident Type
Flight plan parsing failed, navigation log unavailable